Free Trial

Toll Brothers (TOL) Institutional Ownership

$120.11
-2.80 (-2.28%)
(As of 05/28/2024 ET)

Institutional Ownership Changes (13F Filings) for Toll Brothers (NYSE:TOL)

Current
Institutional Ownership
Percentage
91.76%
Number of
Institutional Buyers
(last 12 months)
336
Total
Institutional Inflows
(last 12 months)
$7.43B
Number of
Institutional Sellers
(last 12 months)
229
Total
Institutional Outflows
(last 12 months)
$963.57M
Get TOL Insider Trade Alerts

Want to know when executives and insiders are buying or selling Toll Brothers stock? Sign up for InsiderTrades.com's daily newsletter to get the latest insider transactions delivered to your inbox daily.

Skip Chart & View Institutional Buying and Selling Data

TOL Institutional Buying and Selling by Quarter

Toll Brothers Major Shareholders & Ownership History

Reporting DateMajor Shareholder NameShares HeldMarket Value% of PortfolioQuarterly Change in SharesOwnership in CompanyDetails
5/24/2024 Cetera Advisors LLC5,668$733K0.0%N/A0.005%
5/24/2024 Cetera Investment Advisers22,664$2.93M0.0%+957.1%0.022%
5/24/2024 Invst LLC1,735$222K0.0%-86.3%0.002%
5/22/2024 Burney Co.346,454$44.82M1.7%+8.8%0.333%
5/22/2024 Beck Bode LLC6,645$860K0.2%N/A0.006%
5/21/2024 Delphi Management Inc. MA14,529$1.88M1.5%-1.2%0.014%
5/20/2024 Virtu Financial LLC1,613$209K0.0%-91.5%0.002%
5/20/2024 EMC Capital Management7,505$971K0.6%+11.8%0.007%
5/17/2024 Zimmer Partners LP90,000$11.64M0.2%N/A0.086%
5/17/2024 Comerica Bank72,769$9.41M0.0%-5.6%0.070%
5/17/2024 Tidal Investments LLC12,732$1.65M0.0%N/A0.012%
5/16/2024 Redwood Investment Management LLC11,966$1.55M0.1%-14.5%0.011%
5/16/2024 California State Teachers Retirement System104,996$13.58M0.0%-8.2%0.101%
5/16/2024 Interval Partners LP147,623$19.10M0.5%+842.9%0.142%
5/16/2024 Janus Henderson Group PLC427,287$55.28M0.0%-5.7%0.410%
5/16/2024 Bayesian Capital Management LP6,629$858K0.1%N/A0.006%
5/16/2024 Caxton Associates LP20,060$2.60M0.1%+16.9%0.019%
5/16/2024 Paloma Partners Management Co3,816$494K0.0%N/A0.004%
5/15/2024 Public Employees Retirement System of Ohio53,114$6.87M0.0%-10.5%0.051%
5/15/2024 Public Employees Retirement Association of Colorado11,280$1.46M0.0%-6.6%0.011%
5/15/2024 Bamco Inc. NY1,793,790$232.06M0.6%-0.4%1.722%
5/15/2024 Price T Rowe Associates Inc. MD56,571$7.32M0.0%+14.1%0.054%
5/15/2024 Lazard Asset Management LLC194,111$25.11M0.0%+38.7%0.186%
5/15/2024 1832 Asset Management L.P.306$40K0.0%-29.0%0.000%
5/15/2024 Gabelli Funds LLC23,000$2.98M0.0%-37.0%0.022%
5/15/2024 Gamco Investors INC. ET AL18,500$2.39M0.0%+12.1%0.018%
5/14/2024 JT Stratford LLC14,937$1.93M0.4%-4.5%0.014%
5/14/2024 Capital World Investors3,246,923$420.05M0.1%+0.0%3.117%
5/14/2024 Stamos Capital Partners L.P.3,850$498K0.1%-20.0%0.004%
5/14/2024 Advisors Asset Management Inc.6,849$886K0.0%-15.2%0.007%
5/14/2024 Axxcess Wealth Management LLC9,268$1.20M0.0%+18.6%0.009%
5/14/2024 CreativeOne Wealth LLC3,771$488K0.0%+7.2%0.004%
5/14/2024 Delap Wealth Advisory LLC4,117$533K0.2%N/A0.004%
5/14/2024 Vident Advisory LLC117,901$15.25M0.3%+1,679.4%0.113%
5/14/2024 Shell Asset Management Co.5,999$776K0.0%+36.7%0.006%
5/14/2024 Natixis4,273$553K0.0%-81.4%0.004%
5/14/2024 Tiemann Investment Advisors LLC1,780$230K0.1%N/A0.002%
5/14/2024 Pitcairn Co.3,384$438K0.0%-4.8%0.003%
5/14/2024 CANADA LIFE ASSURANCE Co97,388$12.61M0.0%-0.8%0.093%
5/14/2024 American International Group Inc.138,045$17.86M0.1%-4.9%0.133%
Write this ticker symbol down… (Ad)

A megatrend now poised to mint a brand-new wave of millionaires right here in America. And today, self-made millionaire Tim Bohen is giving you an inside look at the megatrend that’s going to change everything.

Discover the #1 company leading this revolution
5/13/2024 Bessemer Group Inc.811$105K0.0%+333.7%0.001%
5/13/2024 O Shaughnessy Asset Management LLC28,761$3.72M0.0%-7.2%0.028%
5/13/2024 Ameritas Investment Partners Inc.22,997$2.98M0.1%-3.1%0.022%
5/11/2024 Davis R M Inc.195,371$25.28M0.5%-7.1%0.188%
5/11/2024 Covestor Ltd423$55K0.0%-82.1%0.000%
5/11/2024 Jacobi Capital Management LLC1,760$228K0.0%N/A0.002%
5/11/2024 Edgestream Partners L.P.20,700$2.68M0.1%+104.9%0.020%
5/10/2024 Acadian Asset Management LLC461,958$59.76M0.2%-40.0%0.443%
5/10/2024 Capital Management Corp VA43,340$5.61M1.1%-56.5%0.042%
5/10/2024 Vanguard Group Inc.10,722,967$1.39B0.0%-4.8%10.294%
5/10/2024 Intech Investment Management LLC7,514$972K0.0%N/A0.007%
5/10/2024 Mitsubishi UFJ Trust & Banking Corp26,863$3.44M0.0%-15.0%0.026%
5/10/2024 Jupiter Asset Management Ltd.718,809$92.99M0.9%+0.9%0.690%
5/10/2024 J.Safra Asset Management Corp419$54K0.0%+28.9%0.000%
5/10/2024 Cumberland Partners Ltd63,765$8.25M0.6%-28.0%0.061%
5/10/2024 Gratus Wealth Advisors LLC4,758$616K0.1%+4.1%0.005%
5/9/2024 Great Lakes Retirement Inc.9,670$1.25M0.2%+4.1%0.009%
5/9/2024 Orion Portfolio Solutions LLC6,270$811K0.0%+16.6%0.006%
5/9/2024 Kingsview Wealth Management LLC4,631$599K0.0%N/A0.004%
5/9/2024 First Eagle Investment Management LLC19,398$2.51M0.0%-32.2%0.019%
5/9/2024 State Board of Administration of Florida Retirement System145,190$18.78M0.0%+8.2%0.139%
5/8/2024 Entropy Technologies LP3,278$424K0.0%N/A0.003%
5/8/2024 ProShare Advisors LLC5,087$658K0.0%-10.0%0.005%
5/8/2024 Russell Investments Group Ltd.75,432$9.75M0.0%-55.4%0.072%
5/8/2024 QRG Capital Management Inc.19,572$2.53M0.0%+73.4%0.019%
5/8/2024 Keeler Thomas Management LLC27,477$3.56M1.2%-2.2%0.026%
5/8/2024 Inspire Investing LLC9,661$1.25M0.1%+158.3%0.009%
5/8/2024 Thoroughbred Financial Services LLC4,627$598K0.1%+4.3%0.004%
5/7/2024 Meeder Asset Management Inc.33,168$4.29M0.3%-13.1%0.032%
5/7/2024 NorthRock Partners LLC1,879$243K0.0%N/A0.002%
5/7/2024 Sei Investments Co.253,794$32.83M0.0%+42.5%0.244%
5/7/2024 Concurrent Investment Advisors LLC4,505$583K0.0%N/A0.004%
5/7/2024 Atomi Financial Group Inc.2,281$295K0.0%+11.4%0.002%
5/7/2024 Swiss National Bank205,500$26.59M0.0%-3.0%0.197%
5/7/2024 Highland Capital Management LLC37,730$4.88M0.3%N/A0.036%
5/7/2024 Lisanti Capital Growth LLC12,750$1.65M0.4%-1.5%0.012%
5/7/2024 Oppenheimer & Co. Inc.31,727$4.11M0.1%+36.4%0.030%
5/7/2024 Hilltop National Bank5,379$696K0.2%N/A0.005%
5/7/2024 Mesirow Institutional Investment Management Inc.20,759$2.69M0.2%N/A0.020%
5/7/2024 SG Americas Securities LLC3,264$422K0.0%-18.4%0.003%
5/7/2024 Empowered Funds LLC235,049$30.41M0.5%+38.5%0.226%
5/7/2024 AIA Group Ltd11,917$1.54M0.1%-7.0%0.011%
5/6/2024 LSV Asset Management1,449,439$187.51M0.4%-7.9%1.391%
5/6/2024 ORG Partners LLC284$36K0.1%-92.8%0.000%
5/6/2024 Leuthold Group LLC77,198$9.99M1.1%-0.6%0.074%
5/6/2024 VitalStone Financial LLC2,650$343K0.3%N/A0.003%
5/6/2024 Texas Permanent School Fund Corp91,273$11.81M0.1%-1.7%0.088%
5/3/2024 GSA Capital Partners LLP11,143$1.44M0.1%-31.6%0.011%
5/3/2024 BI Asset Management Fondsmaeglerselskab A S15,960$2.07M0.0%N/A0.015%
5/2/2024 Jennison Associates LLC660,732$85.48M0.1%-20.9%0.634%
The ONE AI Stock to own now. (It’s not Nvidia.) (Ad)

Don’t panic — you haven’t missed the boat on AI. In fact, it has barely launched. Sure, the early stages of this boom were big … But I believe the real wealth in AI has yet to be made …

Click here to see the presentation now.
5/2/2024 Mutual of America Capital Management LLC62,139$8.04M0.1%-6.5%0.060%
5/2/2024 Daiwa Securities Group Inc.1,900$246K0.0%+72.7%0.002%
5/2/2024 Fidelis Capital Partners LLC1,001$129K0.0%N/A0.001%
5/2/2024 Montgomery Investment Management Inc.1,800$233K0.1%N/A0.002%
5/2/2024 Hollencrest Capital Management515$67K0.0%+139.5%0.000%
5/2/2024 Fortem Financial Group LLC1,635$212K0.1%N/A0.002%
5/2/2024 Broad Peak Investment Holdings Ltd.21,892$2.83M0.5%-39.8%0.021%
5/1/2024 Capstone Investment Advisors LLC13,028$1.69M0.0%+148.0%0.013%
5/1/2024 Janney Montgomery Scott LLC126,696$16.39M0.0%+11.2%0.122%
5/1/2024 BNP Paribas Financial Markets112,804$14.59M0.0%+28.4%0.108%
(Data available from 1/1/2016 forward)

TOL Institutional Ownership - Frequently Asked Questions

Who are the largest shareholders of TOL shares?

During the previous two years, 542 institutional investors and hedge funds held shares of Toll Brothers. The most heavily invested institutionals were Vanguard Group Inc. ($1.39B), Greenhaven Associates Inc. ($569.97M), BlackRock Inc. ($443.24M), Capital World Investors ($420.05M), Dimensional Fund Advisors LP ($372.20M), Capital International Investors ($359.38M), and Massachusetts Financial Services Co. MA ($324.49M).Learn more on TOL's institutional investors.

What percentage of Toll Brothers stock is owned by institutional investors?

91.76% of Toll Brothers stock is owned by institutional investors. Learn more on TOL's institutional investor holdings.

Which institutional investors have been buying Toll Brothers stock?

Of the 468 institutional investors that purchased Toll Brothers stock in the last 24 months, the following investors and hedge funds have bought the highest volume of shares: Bank Julius Baer & Co. Ltd Zurich ($79.53M), Arete Wealth Advisors LLC ($2.96M), Acadian Asset Management LLC ($1.48M), AQR Capital Management LLC ($1.37M), Norges Bank ($1.25M), Pacer Advisors Inc. ($1.21M), and Ceredex Value Advisors LLC ($1.10M).

How much institutional buying is happening at Toll Brothers?

Institutional investors have bought a total of 109,950,539 shares in the last 24 months. This purchase volume represents approximately $8.33B in transactions.

Which Toll Brothers major shareholders have been selling company stock?

Of the 294 institutional investors that sold Toll Brothers stock in the last 24 months, the following investors and hedge funds have sold the highest volume of shares: Capital International Investors ($1.77M), Los Angeles Capital Management LLC ($1.42M), FMR LLC ($1.23M), Bank of New York Mellon Corp ($1.22M), Wedge Capital Management L L P NC ($907.55K), Prudential Financial Inc. ($846.75K), and Massachusetts Financial Services Co. MA ($819.54K).

How much institutional selling is happening at Toll Brothers?

Institutional investors have sold a total of 20,935,546 shares in the last 24 months. This volume of shares sold represents approximately $1.46B in transactions.


This page (NYSE:TOL) was last updated on 5/29/2024 by MarketBeat.com Staff

From Our Partners